sensor_id;sensor_type;location;lat;lon;timestamp;P1;durP1;ratioP1;P2;durP2;ratioP2
13114;SDS011;6623;52.120;8.660;2023-05-23T00:00:07;2.70;;;2.50;;
13114;SDS011;6623;52.120;8.660;2023-05-23T00:02:38;3.37;;;2.40;;
13114;SDS011;6623;52.120;8.660;2023-05-23T00:05:03;2.40;;;2.20;;
13114;SDS011;6623;52.120;8.660;2023-05-23T00:07:31;2.73;;;2.53;;
13114;SDS011;6623;52.120;8.660;2023-05-23T00:09:57;2.60;;;2.40;;
13114;SDS011;6623;52.120;8.660;2023-05-23T00:12:22;2.50;;;2.30;;
13114;SDS011;6623;52.120;8.660;2023-05-23T00:14:48;2.63;;;2.43;;
13114;SDS011;6623;52.120;8.660;2023-05-23T00:17:14;3.20;;;2.40;;
13114;SDS011;6623;52.120;8.660;2023-05-23T00:19:41;2.40;;;2.20;;
13114;SDS011;6623;52.120;8.660;2023-05-23T00:22:09;2.90;;;2.53;;
13114;SDS011;6623;52.120;8.660;2023-05-23T00:24:35;2.57;;;2.37;;
13114;SDS011;6623;52.120;8.660;2023-05-23T00:27:01;2.60;;;2.40;;
13114;SDS011;6623;52.120;8.660;2023-05-23T00:29:27;2.93;;;2.30;;
13114;SDS011;6623;52.120;8.660;2023-05-23T00:31:52;2.50;;;2.30;;
13114;SDS011;6623;52.120;8.660;2023-05-23T00:34:18;2.60;;;2.40;;
13114;SDS011;6623;52.120;8.660;2023-05-23T00:36:43;2.43;;;2.23;;
13114;SDS011;6623;52.120;8.660;2023-05-23T00:39:11;2.70;;;2.50;;
13114;SDS011;6623;52.120;8.660;2023-05-23T00:41:43;2.80;;;2.60;;
13114;SDS011;6623;52.120;8.660;2023-05-23T00:44:12;2.90;;;2.20;;
13114;SDS011;6623;52.120;8.660;2023-05-23T00:46:38;2.30;;;2.10;;
13114;SDS011;6623;52.120;8.660;2023-05-23T00:49:05;2.80;;;2.50;;
13114;SDS011;6623;52.120;8.660;2023-05-23T00:51:30;2.60;;;2.40;;
13114;SDS011;6623;52.120;8.660;2023-05-23T00:53:56;2.90;;;2.70;;
13114;SDS011;6623;52.120;8.660;2023-05-23T00:56:25;3.43;;;2.33;;
13114;SDS011;6623;52.120;8.660;2023-05-23T00:58:51;2.40;;;2.20;;
13114;SDS011;6623;52.120;8.660;2023-05-23T01:01:18;2.40;;;2.20;;
13114;SDS011;6623;52.120;8.660;2023-05-23T01:03:44;2.40;;;2.20;;
13114;SDS011;6623;52.120;8.660;2023-05-23T01:06:12;2.40;;;2.20;;
13114;SDS011;6623;52.120;8.660;2023-05-23T01:08:38;2.80;;;2.50;;
13114;SDS011;6623;52.120;8.660;2023-05-23T01:11:07;2.50;;;2.30;;
13114;SDS011;6623;52.120;8.660;2023-05-23T01:13:41;2.53;;;2.33;;
13114;SDS011;6623;52.120;8.660;2023-05-23T01:19:03;2.27;;;2.07;;
13114;SDS011;6623;52.120;8.660;2023-05-23T01:21:50;3.13;;;2.63;;
13114;SDS011;6623;52.120;8.660;2023-05-23T01:24:29;2.40;;;2.20;;
13114;SDS011;6623;52.120;8.660;2023-05-23T01:27:04;2.50;;;2.30;;
13114;SDS011;6623;52.120;8.660;2023-05-23T01:29:45;2.10;;;1.90;;
13114;SDS011;6623;52.120;8.660;2023-05-23T01:32:15;2.30;;;2.10;;
13114;SDS011;6623;52.120;8.660;2023-05-23T01:34:41;2.40;;;2.20;;
13114;SDS011;6623;52.120;8.660;2023-05-23T01:37:08;2.53;;;2.33;;
13114;SDS011;6623;52.120;8.660;2023-05-23T01:39:35;2.50;;;2.30;;
13114;SDS011;6623;52.120;8.660;2023-05-23T01:42:01;2.40;;;2.20;;
13114;SDS011;6623;52.120;8.660;2023-05-23T01:44:27;2.40;;;2.20;;
13114;SDS011;6623;52.120;8.660;2023-05-23T01:46:53;2.50;;;2.30;;
13114;SDS011;6623;52.120;8.660;2023-05-23T01:49:18;2.50;;;2.30;;
13114;SDS011;6623;52.120;8.660;2023-05-23T01:51:46;2.63;;;2.43;;
13114;SDS011;6623;52.120;8.660;2023-05-23T01:54:13;2.60;;;2.40;;
13114;SDS011;6623;52.120;8.660;2023-05-23T01:56:40;2.30;;;2.10;;
13114;SDS011;6623;52.120;8.660;2023-05-23T01:59:07;2.40;;;2.20;;
13114;SDS011;6623;52.120;8.660;2023-05-23T02:01:32;2.37;;;2.17;;
13114;SDS011;6623;52.120;8.660;2023-05-23T02:03:58;2.60;;;2.40;;
13114;SDS011;6623;52.120;8.660;2023-05-23T02:06:24;2.13;;;1.93;;
13114;SDS011;6623;52.120;8.660;2023-05-23T02:08:49;2.37;;;2.17;;
13114;SDS011;6623;52.120;8.660;2023-05-23T02:11:15;2.30;;;2.13;;
13114;SDS011;6623;52.120;8.660;2023-05-23T02:13:40;2.53;;;2.33;;
13114;SDS011;6623;52.120;8.660;2023-05-23T02:16:06;2.50;;;2.30;;
13114;SDS011;6623;52.120;8.660;2023-05-23T02:18:32;2.30;;;2.10;;
13114;SDS011;6623;52.120;8.660;2023-05-23T02:20:57;2.43;;;2.23;;
13114;SDS011;6623;52.120;8.660;2023-05-23T02:23:23;2.27;;;2.07;;
13114;SDS011;6623;52.120;8.660;2023-05-23T02:25:48;2.50;;;2.30;;
13114;SDS011;6623;52.120;8.660;2023-05-23T02:28:14;2.47;;;2.27;;
13114;SDS011;6623;52.120;8.660;2023-05-23T02:30:39;3.20;;;2.50;;
13114;SDS011;6623;52.120;8.660;2023-05-23T02:33:05;2.27;;;2.10;;
13114;SDS011;6623;52.120;8.660;2023-05-23T02:35:32;2.47;;;2.27;;
13114;SDS011;6623;52.120;8.660;2023-05-23T02:37:58;2.37;;;2.17;;
13114;SDS011;6623;52.120;8.660;2023-05-23T02:40:23;2.50;;;2.30;;
13114;SDS011;6623;52.120;8.660;2023-05-23T02:42:49;2.73;;;2.07;;
13114;SDS011;6623;52.120;8.660;2023-05-23T02:45:15;2.37;;;2.17;;
13114;SDS011;6623;52.120;8.660;2023-05-23T02:47:41;2.40;;;2.20;;
13114;SDS011;6623;52.120;8.660;2023-05-23T02:50:07;2.30;;;2.10;;
13114;SDS011;6623;52.120;8.660;2023-05-23T02:52:33;2.00;;;1.90;;
13114;SDS011;6623;52.120;8.660;2023-05-23T02:54:58;2.40;;;2.20;;
13114;SDS011;6623;52.120;8.660;2023-05-23T02:57:24;2.40;;;2.20;;
13114;SDS011;6623;52.120;8.660;2023-05-23T02:59:50;2.50;;;2.30;;
13114;SDS011;6623;52.120;8.660;2023-05-23T03:02:15;2.40;;;2.20;;
13114;SDS011;6623;52.120;8.660;2023-05-23T03:04:41;2.20;;;2.10;;
13114;SDS011;6623;52.120;8.660;2023-05-23T03:07:06;2.67;;;2.47;;
13114;SDS011;6623;52.120;8.660;2023-05-23T03:09:35;2.30;;;2.10;;
13114;SDS011;6623;52.120;8.660;2023-05-23T03:12:00;2.57;;;2.37;;
13114;SDS011;6623;52.120;8.660;2023-05-23T03:14:26;2.20;;;2.00;;
13114;SDS011;6623;52.120;8.660;2023-05-23T03:16:51;2.70;;;2.50;;
13114;SDS011;6623;52.120;8.660;2023-05-23T03:19:17;2.53;;;2.33;;
13114;SDS011;6623;52.120;8.660;2023-05-23T03:21:42;2.33;;;2.13;;
13114;SDS011;6623;52.120;8.660;2023-05-23T03:24:08;2.30;;;2.10;;
13114;SDS011;6623;52.120;8.660;2023-05-23T03:26:33;2.50;;;2.30;;
13114;SDS011;6623;52.120;8.660;2023-05-23T03:28:59;2.33;;;2.13;;
13114;SDS011;6623;52.120;8.660;2023-05-23T03:31:24;2.40;;;2.20;;
13114;SDS011;6623;52.120;8.660;2023-05-23T03:33:50;2.33;;;2.13;;
13114;SDS011;6623;52.120;8.660;2023-05-23T03:36:15;2.03;;;1.93;;
13114;SDS011;6623;52.120;8.660;2023-05-23T03:38:41;2.33;;;2.20;;
13114;SDS011;6623;52.120;8.660;2023-05-23T03:41:06;2.30;;;2.10;;
13114;SDS011;6623;52.120;8.660;2023-05-23T03:43:32;2.40;;;2.20;;
13114;SDS011;6623;52.120;8.660;2023-05-23T03:45:57;2.37;;;2.17;;
13114;SDS011;6623;52.120;8.660;2023-05-23T03:48:23;2.17;;;2.00;;
13114;SDS011;6623;52.120;8.660;2023-05-23T03:50:48;2.87;;;2.17;;
13114;SDS011;6623;52.120;8.660;2023-05-23T03:53:14;2.27;;;2.07;;
13114;SDS011;6623;52.120;8.660;2023-05-23T03:55:39;2.33;;;2.13;;
13114;SDS011;6623;52.120;8.660;2023-05-23T03:58:05;2.17;;;2.07;;
13114;SDS011;6623;52.120;8.660;2023-05-23T04:00:31;2.07;;;1.97;;
13114;SDS011;6623;52.120;8.660;2023-05-23T04:02:56;2.20;;;2.00;;
13114;SDS011;6623;52.120;8.660;2023-05-23T04:05:22;2.50;;;2.30;;
13114;SDS011;6623;52.120;8.660;2023-05-23T04:07:48;2.20;;;2.00;;
13114;SDS011;6623;52.120;8.660;2023-05-23T04:10:13;2.30;;;2.10;;
13114;SDS011;6623;52.120;8.660;2023-05-23T04:12:39;2.60;;;2.40;;
13114;SDS011;6623;52.120;8.660;2023-05-23T04:15:05;2.40;;;2.20;;
13114;SDS011;6623;52.120;8.660;2023-05-23T04:17:31;2.30;;;2.00;;
13114;SDS011;6623;52.120;8.660;2023-05-23T04:19:57;2.30;;;2.10;;
13114;SDS011;6623;52.120;8.660;2023-05-23T04:22:23;2.10;;;2.00;;
13114;SDS011;6623;52.120;8.660;2023-05-23T04:24:48;2.30;;;2.10;;
13114;SDS011;6623;52.120;8.660;2023-05-23T04:27:14;1.87;;;1.77;;
13114;SDS011;6623;52.120;8.660;2023-05-23T04:29:39;2.43;;;2.23;;
13114;SDS011;6623;52.120;8.660;2023-05-23T04:32:05;2.13;;;2.03;;
13114;SDS011;6623;52.120;8.660;2023-05-23T04:34:31;2.17;;;1.97;;
13114;SDS011;6623;52.120;8.660;2023-05-23T04:37:00;2.03;;;1.90;;
13114;SDS011;6623;52.120;8.660;2023-05-23T04:39:26;2.40;;;2.20;;
13114;SDS011;6623;52.120;8.660;2023-05-23T04:41:53;2.30;;;2.10;;
13114;SDS011;6623;52.120;8.660;2023-05-23T04:44:19;2.10;;;1.90;;
13114;SDS011;6623;52.120;8.660;2023-05-23T04:46:44;2.00;;;1.90;;
13114;SDS011;6623;52.120;8.660;2023-05-23T04:49:10;2.40;;;2.20;;
13114;SDS011;6623;52.120;8.660;2023-05-23T04:51:36;2.10;;;1.90;;
13114;SDS011;6623;52.120;8.660;2023-05-23T04:54:02;2.33;;;2.13;;
13114;SDS011;6623;52.120;8.660;2023-05-23T04:56:28;2.17;;;1.97;;
13114;SDS011;6623;52.120;8.660;2023-05-23T04:58:54;2.60;;;2.07;;
13114;SDS011;6623;52.120;8.660;2023-05-23T05:01:20;2.30;;;2.10;;
13114;SDS011;6623;52.120;8.660;2023-05-23T05:03:48;2.20;;;2.00;;
13114;SDS011;6623;52.120;8.660;2023-05-23T05:06:14;2.10;;;1.90;;
13114;SDS011;6623;52.120;8.660;2023-05-23T05:08:40;2.10;;;2.00;;
13114;SDS011;6623;52.120;8.660;2023-05-23T05:11:05;2.30;;;2.10;;
13114;SDS011;6623;52.120;8.660;2023-05-23T05:13:31;2.30;;;2.10;;
13114;SDS011;6623;52.120;8.660;2023-05-23T05:15:57;2.13;;;2.03;;
13114;SDS011;6623;52.120;8.660;2023-05-23T05:18:22;2.17;;;2.00;;
13114;SDS011;6623;52.120;8.660;2023-05-23T05:20:50;2.30;;;2.10;;
13114;SDS011;6623;52.120;8.660;2023-05-23T05:23:15;1.93;;;1.83;;
13114;SDS011;6623;52.120;8.660;2023-05-23T05:25:41;2.23;;;2.03;;
13114;SDS011;6623;52.120;8.660;2023-05-23T05:28:07;2.30;;;2.10;;
13114;SDS011;6623;52.120;8.660;2023-05-23T05:30:32;2.20;;;2.00;;
13114;SDS011;6623;52.120;8.660;2023-05-23T05:33:02;2.20;;;2.00;;
13114;SDS011;6623;52.120;8.660;2023-05-23T05:35:31;2.37;;;2.17;;
13114;SDS011;6623;52.120;8.660;2023-05-23T05:38:02;2.10;;;1.90;;
13114;SDS011;6623;52.120;8.660;2023-05-23T05:40:28;2.20;;;2.00;;
13114;SDS011;6623;52.120;8.660;2023-05-23T05:42:54;2.10;;;1.90;;
13114;SDS011;6623;52.120;8.660;2023-05-23T05:45:20;2.00;;;1.80;;
13114;SDS011;6623;52.120;8.660;2023-05-23T05:47:45;2.40;;;2.20;;
13114;SDS011;6623;52.120;8.660;2023-05-23T05:50:11;2.13;;;1.93;;
13114;SDS011;6623;52.120;8.660;2023-05-23T05:52:37;2.10;;;1.93;;
13114;SDS011;6623;52.120;8.660;2023-05-23T05:55:07;2.30;;;2.10;;
13114;SDS011;6623;52.120;8.660;2023-05-23T05:57:37;2.27;;;2.07;;
13114;SDS011;6623;52.120;8.660;2023-05-23T06:00:07;1.97;;;1.87;;
13114;SDS011;6623;52.120;8.660;2023-05-23T06:02:37;1.97;;;1.77;;
13114;SDS011;6623;52.120;8.660;2023-05-23T06:05:07;2.40;;;2.20;;
13114;SDS011;6623;52.120;8.660;2023-05-23T06:07:36;2.13;;;2.00;;
13114;SDS011;6623;52.120;8.660;2023-05-23T06:10:05;2.10;;;1.90;;
13114;SDS011;6623;52.120;8.660;2023-05-23T06:12:32;2.40;;;2.20;;
13114;SDS011;6623;52.120;8.660;2023-05-23T06:14:57;2.00;;;1.90;;
13114;SDS011;6623;52.120;8.660;2023-05-23T06:17:23;1.90;;;1.80;;
13114;SDS011;6623;52.120;8.660;2023-05-23T06:19:49;2.20;;;2.00;;
13114;SDS011;6623;52.120;8.660;2023-05-23T06:22:15;2.10;;;1.90;;
13114;SDS011;6623;52.120;8.660;2023-05-23T06:24:40;2.00;;;1.90;;
13114;SDS011;6623;52.120;8.660;2023-05-23T06:27:06;1.90;;;1.80;;
13114;SDS011;6623;52.120;8.660;2023-05-23T06:29:31;2.20;;;2.00;;
13114;SDS011;6623;52.120;8.660;2023-05-23T06:31:57;2.37;;;2.17;;
13114;SDS011;6623;52.120;8.660;2023-05-23T06:34:22;2.27;;;2.07;;
13114;SDS011;6623;52.120;8.660;2023-05-23T06:36:48;2.30;;;2.10;;
13114;SDS011;6623;52.120;8.660;2023-05-23T06:39:13;2.10;;;1.90;;
13114;SDS011;6623;52.120;8.660;2023-05-23T06:41:39;2.33;;;2.13;;
13114;SDS011;6623;52.120;8.660;2023-05-23T06:44:05;2.10;;;1.90;;
13114;SDS011;6623;52.120;8.660;2023-05-23T06:46:30;2.17;;;1.97;;
13114;SDS011;6623;52.120;8.660;2023-05-23T06:48:56;1.80;;;1.70;;
13114;SDS011;6623;52.120;8.660;2023-05-23T06:51:21;2.10;;;1.90;;
13114;SDS011;6623;52.120;8.660;2023-05-23T06:53:47;2.57;;;1.97;;
13114;SDS011;6623;52.120;8.660;2023-05-23T06:56:12;2.13;;;1.97;;
13114;SDS011;6623;52.120;8.660;2023-05-23T06:58:38;1.90;;;1.80;;
13114;SDS011;6623;52.120;8.660;2023-05-23T07:01:03;1.90;;;1.80;;
13114;SDS011;6623;52.120;8.660;2023-05-23T07:03:29;2.00;;;1.90;;
13114;SDS011;6623;52.120;8.660;2023-05-23T07:05:55;2.10;;;1.90;;
13114;SDS011;6623;52.120;8.660;2023-05-23T07:08:20;2.10;;;1.90;;
13114;SDS011;6623;52.120;8.660;2023-05-23T07:10:46;2.00;;;1.80;;
13114;SDS011;6623;52.120;8.660;2023-05-23T07:13:11;2.07;;;1.87;;
13114;SDS011;6623;52.120;8.660;2023-05-23T07:15:37;2.10;;;1.90;;
13114;SDS011;6623;52.120;8.660;2023-05-23T07:18:02;1.80;;;1.70;;
13114;SDS011;6623;52.120;8.660;2023-05-23T07:20:28;2.20;;;1.80;;
13114;SDS011;6623;52.120;8.660;2023-05-23T07:22:54;1.97;;;1.77;;
13114;SDS011;6623;52.120;8.660;2023-05-23T07:25:19;1.90;;;1.80;;
13114;SDS011;6623;52.120;8.660;2023-05-23T07:27:47;2.20;;;2.00;;
13114;SDS011;6623;52.120;8.660;2023-05-23T07:30:12;2.07;;;1.80;;
13114;SDS011;6623;52.120;8.660;2023-05-23T07:32:38;2.10;;;1.90;;
13114;SDS011;6623;52.120;8.660;2023-05-23T07:35:03;1.97;;;1.83;;
13114;SDS011;6623;52.120;8.660;2023-05-23T07:37:29;2.27;;;2.00;;
13114;SDS011;6623;52.120;8.660;2023-05-23T07:39:55;2.33;;;2.10;;
13114;SDS011;6623;52.120;8.660;2023-05-23T07:42:20;1.90;;;1.80;;
13114;SDS011;6623;52.120;8.660;2023-05-23T07:44:46;2.10;;;1.90;;
13114;SDS011;6623;52.120;8.660;2023-05-23T07:47:11;2.00;;;1.80;;
13114;SDS011;6623;52.120;8.660;2023-05-23T07:49:37;2.00;;;1.80;;
13114;SDS011;6623;52.120;8.660;2023-05-23T07:52:02;1.97;;;1.70;;
13114;SDS011;6623;52.120;8.660;2023-05-23T07:54:28;2.07;;;1.90;;
13114;SDS011;6623;52.120;8.660;2023-05-23T07:56:53;2.20;;;1.83;;
13114;SDS011;6623;52.120;8.660;2023-05-23T07:59:19;1.97;;;1.80;;
13114;SDS011;6623;52.120;8.660;2023-05-23T08:01:44;2.63;;;1.80;;
13114;SDS011;6623;52.120;8.660;2023-05-23T08:04:10;1.97;;;1.87;;
13114;SDS011;6623;52.120;8.660;2023-05-23T08:06:35;1.90;;;1.70;;
13114;SDS011;6623;52.120;8.660;2023-05-23T08:09:02;1.90;;;1.70;;
13114;SDS011;6623;52.120;8.660;2023-05-23T08:11:28;1.83;;;1.70;;
13114;SDS011;6623;52.120;8.660;2023-05-23T08:13:54;2.13;;;1.93;;
13114;SDS011;6623;52.120;8.660;2023-05-23T08:16:20;2.13;;;1.80;;
13114;SDS011;6623;52.120;8.660;2023-05-23T08:18:45;1.90;;;1.80;;
13114;SDS011;6623;52.120;8.660;2023-05-23T08:21:11;2.10;;;1.90;;
13114;SDS011;6623;52.120;8.660;2023-05-23T08:23:36;2.07;;;1.83;;
13114;SDS011;6623;52.120;8.660;2023-05-23T08:26:02;2.27;;;2.07;;
13114;SDS011;6623;52.120;8.660;2023-05-23T08:28:27;1.90;;;1.70;;
13114;SDS011;6623;52.120;8.660;2023-05-23T08:30:53;2.83;;;1.93;;
13114;SDS011;6623;52.120;8.660;2023-05-23T08:33:21;2.00;;;1.80;;
13114;SDS011;6623;52.120;8.660;2023-05-23T08:35:46;2.20;;;2.00;;
13114;SDS011;6623;52.120;8.660;2023-05-23T08:38:12;1.70;;;1.60;;
13114;SDS011;6623;52.120;8.660;2023-05-23T08:40:38;1.83;;;1.67;;
13114;SDS011;6623;52.120;8.660;2023-05-23T08:43:05;1.70;;;1.60;;
13114;SDS011;6623;52.120;8.660;2023-05-23T08:45:31;2.00;;;1.80;;
13114;SDS011;6623;52.120;8.660;2023-05-23T08:47:59;1.90;;;1.80;;
13114;SDS011;6623;52.120;8.660;2023-05-23T08:50:25;1.87;;;1.73;;
13114;SDS011;6623;52.120;8.660;2023-05-23T08:52:55;2.10;;;1.90;;
13114;SDS011;6623;52.120;8.660;2023-05-23T08:55:24;1.93;;;1.70;;
13114;SDS011;6623;52.120;8.660;2023-05-23T08:57:52;1.80;;;1.70;;
13114;SDS011;6623;52.120;8.660;2023-05-23T09:00:18;1.70;;;1.60;;
13114;SDS011;6623;52.120;8.660;2023-05-23T09:02:45;1.80;;;1.60;;
13114;SDS011;6623;52.120;8.660;2023-05-23T09:05:11;1.70;;;1.60;;
13114;SDS011;6623;52.120;8.660;2023-05-23T09:07:37;1.50;;;1.40;;
13114;SDS011;6623;52.120;8.660;2023-05-23T09:10:04;2.33;;;2.00;;
13114;SDS011;6623;52.120;8.660;2023-05-23T09:12:31;1.93;;;1.73;;
13114;SDS011;6623;52.120;8.660;2023-05-23T09:14:59;2.03;;;1.83;;
13114;SDS011;6623;52.120;8.660;2023-05-23T09:17:24;1.60;;;1.50;;
13114;SDS011;6623;52.120;8.660;2023-05-23T09:19:50;1.80;;;1.70;;
13114;SDS011;6623;52.120;8.660;2023-05-23T09:22:16;1.70;;;1.60;;
13114;SDS011;6623;52.120;8.660;2023-05-23T09:24:49;1.60;;;1.50;;
13114;SDS011;6623;52.120;8.660;2023-05-23T09:27:16;2.13;;;1.70;;
13114;SDS011;6623;52.120;8.660;2023-05-23T09:29:42;1.87;;;1.70;;
13114;SDS011;6623;52.120;8.660;2023-05-23T09:32:17;1.57;;;1.43;;
13114;SDS011;6623;52.120;8.660;2023-05-23T09:35:00;1.70;;;1.60;;
13114;SDS011;6623;52.120;8.660;2023-05-23T09:37:42;1.63;;;1.53;;
13114;SDS011;6623;52.120;8.660;2023-05-23T09:40:13;1.83;;;1.73;;
13114;SDS011;6623;52.120;8.660;2023-05-23T09:42:42;1.67;;;1.57;;
13114;SDS011;6623;52.120;8.660;2023-05-23T09:45:10;1.70;;;1.60;;
13114;SDS011;6623;52.120;8.660;2023-05-23T09:47:36;2.30;;;1.77;;
13114;SDS011;6623;52.120;8.660;2023-05-23T09:50:01;1.90;;;1.67;;
13114;SDS011;6623;52.120;8.660;2023-05-23T09:52:33;1.60;;;1.50;;
13114;SDS011;6623;52.120;8.660;2023-05-23T09:55:01;1.73;;;1.60;;
13114;SDS011;6623;52.120;8.660;2023-05-23T09:57:26;2.33;;;1.73;;
13114;SDS011;6623;52.120;8.660;2023-05-23T09:59:53;1.73;;;1.63;;
13114;SDS011;6623;52.120;8.660;2023-05-23T10:02:28;1.80;;;1.70;;
13114;SDS011;6623;52.120;8.660;2023-05-23T10:05:27;1.90;;;1.60;;
13114;SDS011;6623;52.120;8.660;2023-05-23T10:07:59;1.60;;;1.50;;
13114;SDS011;6623;52.120;8.660;2023-05-23T10:10:28;2.60;;;1.73;;
13114;SDS011;6623;52.120;8.660;2023-05-23T10:12:56;1.63;;;1.53;;
13114;SDS011;6623;52.120;8.660;2023-05-23T10:15:24;2.13;;;1.80;;
13114;SDS011;6623;52.120;8.660;2023-05-23T10:18:08;1.90;;;1.33;;
13114;SDS011;6623;52.120;8.660;2023-05-23T10:20:59;1.70;;;1.60;;
13114;SDS011;6623;52.120;8.660;2023-05-23T10:23:31;1.53;;;1.40;;
13114;SDS011;6623;52.120;8.660;2023-05-23T10:25:57;1.73;;;1.63;;
13114;SDS011;6623;52.120;8.660;2023-05-23T10:28:24;1.63;;;1.53;;
13114;SDS011;6623;52.120;8.660;2023-05-23T10:30:51;1.70;;;1.43;;
13114;SDS011;6623;52.120;8.660;2023-05-23T10:33:16;2.13;;;1.77;;
13114;SDS011;6623;52.120;8.660;2023-05-23T10:49:32;1.87;;;1.60;;
13114;SDS011;6623;52.120;8.660;2023-05-23T10:52:15;1.73;;;1.63;;
13114;SDS011;6623;52.120;8.660;2023-05-23T10:54:43;2.10;;;1.40;;
13114;SDS011;6623;52.120;8.660;2023-05-23T10:57:10;1.90;;;1.57;;
13114;SDS011;6623;52.120;8.660;2023-05-23T10:59:40;1.43;;;1.30;;
13114;SDS011;6623;52.120;8.660;2023-05-23T11:02:09;1.50;;;1.40;;
13114;SDS011;6623;52.120;8.660;2023-05-23T11:04:41;1.80;;;1.70;;
13114;SDS011;6623;52.120;8.660;2023-05-23T11:07:27;1.73;;;1.50;;
13114;SDS011;6623;52.120;8.660;2023-05-23T11:10:08;1.60;;;1.50;;
13114;SDS011;6623;52.120;8.660;2023-05-23T11:12:42;2.20;;;1.60;;
13114;SDS011;6623;52.120;8.660;2023-05-23T11:17:49;1.93;;;1.60;;
13114;SDS011;6623;52.120;8.660;2023-05-23T11:20:15;2.03;;;1.53;;
13114;SDS011;6623;52.120;8.660;2023-05-23T11:22:53;1.73;;;1.33;;
13114;SDS011;6623;52.120;8.660;2023-05-23T11:25:38;1.70;;;1.43;;
13114;SDS011;6623;52.120;8.660;2023-05-23T11:28:08;1.87;;;1.67;;
13114;SDS011;6623;52.120;8.660;2023-05-23T11:30:34;1.60;;;1.50;;
13114;SDS011;6623;52.120;8.660;2023-05-23T11:33:06;1.57;;;1.47;;
13114;SDS011;6623;52.120;8.660;2023-05-23T11:35:46;2.13;;;1.50;;
13114;SDS011;6623;52.120;8.660;2023-05-23T11:38:13;2.10;;;1.50;;
13114;SDS011;6623;52.120;8.660;2023-05-23T11:40:41;1.47;;;1.30;;
13114;SDS011;6623;52.120;8.660;2023-05-23T11:43:09;1.83;;;1.60;;
13114;SDS011;6623;52.120;8.660;2023-05-23T11:45:36;1.40;;;1.30;;
13114;SDS011;6623;52.120;8.660;2023-05-23T11:50:48;1.53;;;1.43;;
13114;SDS011;6623;52.120;8.660;2023-05-23T11:53:16;2.07;;;1.60;;
13114;SDS011;6623;52.120;8.660;2023-05-23T11:55:49;1.20;;;1.10;;
13114;SDS011;6623;52.120;8.660;2023-05-23T11:58:18;1.70;;;1.50;;
13114;SDS011;6623;52.120;8.660;2023-05-23T12:00:45;1.77;;;1.40;;
13114;SDS011;6623;52.120;8.660;2023-05-23T12:03:10;1.47;;;1.30;;
13114;SDS011;6623;52.120;8.660;2023-05-23T12:05:36;1.80;;;1.47;;
13114;SDS011;6623;52.120;8.660;2023-05-23T12:08:02;1.53;;;1.33;;
13114;SDS011;6623;52.120;8.660;2023-05-23T12:10:27;1.93;;;1.53;;
13114;SDS011;6623;52.120;8.660;2023-05-23T12:12:53;1.37;;;1.27;;
13114;SDS011;6623;52.120;8.660;2023-05-23T12:15:23;1.50;;;1.40;;
13114;SDS011;6623;52.120;8.660;2023-05-23T12:17:52;1.80;;;1.33;;
13114;SDS011;6623;52.120;8.660;2023-05-23T12:20:18;1.70;;;1.50;;
13114;SDS011;6623;52.120;8.660;2023-05-23T12:22:44;1.53;;;1.43;;
13114;SDS011;6623;52.120;8.660;2023-05-23T12:25:10;1.63;;;1.37;;
13114;SDS011;6623;52.120;8.660;2023-05-23T12:27:36;2.30;;;1.50;;
13114;SDS011;6623;52.120;8.660;2023-05-23T12:30:04;2.07;;;1.40;;
13114;SDS011;6623;52.120;8.660;2023-05-23T12:32:48;1.70;;;1.53;;
13114;SDS011;6623;52.120;8.660;2023-05-23T12:35:14;1.53;;;1.43;;
13114;SDS011;6623;52.120;8.660;2023-05-23T12:37:43;1.40;;;1.30;;
13114;SDS011;6623;52.120;8.660;2023-05-23T12:40:13;1.47;;;1.27;;
13114;SDS011;6623;52.120;8.660;2023-05-23T12:42:44;1.63;;;1.40;;
13114;SDS011;6623;52.120;8.660;2023-05-23T12:45:22;1.73;;;1.30;;
13114;SDS011;6623;52.120;8.660;2023-05-23T12:47:54;2.17;;;1.50;;
13114;SDS011;6623;52.120;8.660;2023-05-23T12:50:20;2.07;;;1.47;;
13114;SDS011;6623;52.120;8.660;2023-05-23T12:52:45;2.13;;;1.40;;
13114;SDS011;6623;52.120;8.660;2023-05-23T12:55:11;2.07;;;1.47;;
13114;SDS011;6623;52.120;8.660;2023-05-23T12:57:37;1.90;;;1.40;;
13114;SDS011;6623;52.120;8.660;2023-05-23T13:00:03;1.70;;;1.40;;
13114;SDS011;6623;52.120;8.660;2023-05-23T13:02:29;2.07;;;1.50;;
13114;SDS011;6623;52.120;8.660;2023-05-23T13:04:54;2.27;;;1.57;;
13114;SDS011;6623;52.120;8.660;2023-05-23T13:07:20;1.80;;;1.47;;
13114;SDS011;6623;52.120;8.660;2023-05-23T13:09:46;1.40;;;1.30;;
13114;SDS011;6623;52.120;8.660;2023-05-23T13:12:11;1.73;;;1.40;;
13114;SDS011;6623;52.120;8.660;2023-05-23T13:14:37;1.67;;;1.30;;
13114;SDS011;6623;52.120;8.660;2023-05-23T13:17:03;2.47;;;1.60;;
13114;SDS011;6623;52.120;8.660;2023-05-23T13:19:28;1.67;;;1.50;;
13114;SDS011;6623;52.120;8.660;2023-05-23T13:21:54;2.20;;;1.60;;
13114;SDS011;6623;52.120;8.660;2023-05-23T13:24:19;2.23;;;1.63;;
13114;SDS011;6623;52.120;8.660;2023-05-23T13:26:45;1.70;;;1.30;;
13114;SDS011;6623;52.120;8.660;2023-05-23T13:29:11;2.33;;;1.60;;
13114;SDS011;6623;52.120;8.660;2023-05-23T13:31:36;1.97;;;1.47;;
13114;SDS011;6623;52.120;8.660;2023-05-23T13:34:02;2.60;;;1.70;;
13114;SDS011;6623;52.120;8.660;2023-05-23T13:36:27;1.70;;;1.33;;
13114;SDS011;6623;52.120;8.660;2023-05-23T13:38:53;2.00;;;1.40;;
13114;SDS011;6623;52.120;8.660;2023-05-23T13:41:18;1.70;;;1.33;;
13114;SDS011;6623;52.120;8.660;2023-05-23T13:43:44;1.83;;;1.33;;
13114;SDS011;6623;52.120;8.660;2023-05-23T13:46:10;1.63;;;1.27;;
13114;SDS011;6623;52.120;8.660;2023-05-23T13:48:36;3.00;;;1.50;;
13114;SDS011;6623;52.120;8.660;2023-05-23T13:51:01;1.80;;;1.40;;
13114;SDS011;6623;52.120;8.660;2023-05-23T13:53:27;1.63;;;1.40;;
13114;SDS011;6623;52.120;8.660;2023-05-23T13:55:52;1.43;;;1.23;;
13114;SDS011;6623;52.120;8.660;2023-05-23T13:58:18;2.50;;;1.33;;
13114;SDS011;6623;52.120;8.660;2023-05-23T14:00:45;1.93;;;1.40;;
13114;SDS011;6623;52.120;8.660;2023-05-23T14:03:11;2.50;;;1.50;;
13114;SDS011;6623;52.120;8.660;2023-05-23T14:05:36;1.57;;;1.30;;
13114;SDS011;6623;52.120;8.660;2023-05-23T14:08:02;2.17;;;1.40;;
13114;SDS011;6623;52.120;8.660;2023-05-23T14:10:28;2.07;;;1.53;;
13114;SDS011;6623;52.120;8.660;2023-05-23T14:12:54;1.70;;;1.50;;
13114;SDS011;6623;52.120;8.660;2023-05-23T14:15:20;2.10;;;1.60;;
13114;SDS011;6623;52.120;8.660;2023-05-23T14:17:45;2.23;;;1.40;;
13114;SDS011;6623;52.120;8.660;2023-05-23T14:20:11;2.37;;;1.60;;
13114;SDS011;6623;52.120;8.660;2023-05-23T14:22:36;1.97;;;1.33;;
13114;SDS011;6623;52.120;8.660;2023-05-23T14:25:02;2.10;;;1.50;;
13114;SDS011;6623;52.120;8.660;2023-05-23T14:27:28;2.30;;;1.33;;
13114;SDS011;6623;52.120;8.660;2023-05-23T14:29:53;1.90;;;1.50;;
13114;SDS011;6623;52.120;8.660;2023-05-23T14:32:19;2.23;;;1.43;;
13114;SDS011;6623;52.120;8.660;2023-05-23T14:34:44;1.67;;;1.30;;
13114;SDS011;6623;52.120;8.660;2023-05-23T14:37:10;2.07;;;1.57;;
13114;SDS011;6623;52.120;8.660;2023-05-23T14:39:35;2.43;;;1.60;;
13114;SDS011;6623;52.120;8.660;2023-05-23T14:42:01;2.30;;;1.33;;
13114;SDS011;6623;52.120;8.660;2023-05-23T14:44:27;1.97;;;1.20;;
13114;SDS011;6623;52.120;8.660;2023-05-23T14:46:52;2.50;;;1.53;;
13114;SDS011;6623;52.120;8.660;2023-05-23T14:49:17;2.40;;;1.30;;
13114;SDS011;6623;52.120;8.660;2023-05-23T14:51:43;2.37;;;1.60;;
13114;SDS011;6623;52.120;8.660;2023-05-23T14:54:09;3.37;;;1.50;;
13114;SDS011;6623;52.120;8.660;2023-05-23T14:56:35;2.20;;;1.40;;
13114;SDS011;6623;52.120;8.660;2023-05-23T14:59:01;2.13;;;1.50;;
13114;SDS011;6623;52.120;8.660;2023-05-23T15:01:28;1.97;;;1.30;;
13114;SDS011;6623;52.120;8.660;2023-05-23T15:03:54;2.47;;;1.67;;
13114;SDS011;6623;52.120;8.660;2023-05-23T15:06:20;1.70;;;1.40;;
13114;SDS011;6623;52.120;8.660;2023-05-23T15:08:45;2.30;;;1.43;;
13114;SDS011;6623;52.120;8.660;2023-05-23T15:11:11;2.40;;;1.50;;
13114;SDS011;6623;52.120;8.660;2023-05-23T15:13:36;2.57;;;1.40;;
13114;SDS011;6623;52.120;8.660;2023-05-23T15:16:02;2.30;;;1.70;;
13114;SDS011;6623;52.120;8.660;2023-05-23T15:18:27;3.30;;;1.63;;
13114;SDS011;6623;52.120;8.660;2023-05-23T15:20:53;2.40;;;1.70;;